Date,TemperatureHighF,TemperatureAvgF,TemperatureLowF,DewpointHighF,DewpointAvgF,DewpointLowF,HumidityHigh,HumidityAvg,HumidityLow,PressureMaxIn,PressureMinIn,WindSpeedMaxMPH,WindSpeedAvgMPH,GustSpeedMaxMPH,PrecipitationSumIn
2012-7-22,88.0,77.4,69.8,76.8,73.7,69.2,98,89,65,30.07,30.01,7,0,8,0.45
2012-7-23,90.7,77.7,67.5,74.2,70.7,67.2,99,81,52,30.09,29.95,11,1,19,0.00
2012-7-24,87.6,74.3,66.6,75.6,70.1,64.2,99,88,64,29.99,29.84,17,1,29,0.00
2012-7-25,92.3,77.2,66.0,76.7,71.2,65.6,99,84,56,29.91,29.80,9,1,12,0.57
2012-7-26,92.8,79.8,68.5,75.2,71.2,68.3,99,78,48,29.86,29.72,9,2,15,0.00
2012-7-27,89.6,77.8,69.4,76.9,71.6,69.2,99,83,56,29.87,29.77,10,1,13,0.04
2012-7-28,89.8,77.0,64.2,70.7,66.5,62.3,99,73,45,29.94,26.85,10,1,14,0.01
2012-7-29,90.7,75.0,61.5,69.5,64.1,57.6,99,73,37,29.96,29.87,7,1,11,0.00
2012-7-30,94.8,77.2,62.6,70.4,65.8,61.8,99,72,40,29.91,29.82,6,1,8,0.00
2012-7-31,89.8,74.1,64.0,72.3,67.2,63.2,99,81,52,29.87,29.76,13,1,17,0.17
2012-8-1,89.1,72.1,63.1,74.6,67.5,62.3,99,87,56,29.87,29.74,5,0,8,0.00
2012-8-2,94.5,77.4,64.2,72.1,67.3,63.4,99,75,39,29.85,29.77,8,1,9,0.01
2012-8-3,91.9,72.4,62.2,74.1,67.2,61.5,99,86,50,29.94,29.80,18,1,26,1.09
2012-8-4,91.8,76.2,67.1,75.0,69.5,66.8,99,82,50,30.04,29.91,9,1,11,0.01
2012-8-5,92.5,75.6,65.8,73.4,68.9,65.4,99,82,49,30.08,29.97,11,1,14,0.05
2012-8-6,83.3,72.7,67.8,73.0,69.7,67.6,99,91,67,30.04,29.92,3,0,4,0.20
2012-8-7,91.8,75.7,65.8,73.9,69.5,65.6,99,83,50,29.93,29.84,4,0,7,0.00
2012-8-8,94.8,76.6,66.7,73.7,68.6,63.9,99,80,44,29.94,29.84,8,1,11,0.00
2012-8-9,90.7,72.3,64.0,73.8,67.1,63.2,99,86,51,29.98,29.75,17,1,27,0.26
2012-8-10,82.8,71.3,63.9,71.8,67.9,63.0,99,90,65,29.94,29.88,11,1,16,0.00
2012-8-11,84.6,72.2,61.3,69.7,62.3,56.0,98,74,43,30.08,29.93,8,1,12,0.00
2012-8-12,87.1,68.4,54.0,63.0,58.3,53.1,99,74,37,30.13,30.07,8,1,9,0.01
2012-8-13,86.0,70.0,55.6,67.5,61.5,55.3,99,77,48,30.13,30.02,8,1,14,0.00
2012-8-14,84.7,71.6,64.2,70.1,65.9,63.2,99,84,57,30.05,29.96,7,1,11,0.00
2012-8-15,83.1,69.7,60.6,72.2,64.3,59.8,99,85,49,30.11,29.99,10,1,14,0.06
2012-8-16,88.9,69.9,55.2,65.3,61.0,54.4,99,78,42,30.15,30.01,5,1,7,0.00
2012-8-17,80.1,68.4,58.1,69.0,63.6,57.8,99,86,60,30.08,29.97,6,1,8,0.00
2012-8-18,86.4,71.8,61.3,66.6,62.5,53.8,99,76,35,30.04,29.93,6,1,8,0.00
2012-8-19,83.7,69.3,61.2,66.3,62.3,59.3,98,81,49,29.99,29.91,5,1,8,0.08
2012-8-20,84.0,70.3,57.7,68.0,60.5,55.4,99,75,40,30.08,29.94,9,1,13,0.00
2012-8-21,86.9,65.1,51.3,62.7,55.8,48.2,99,77,27,30.15,30.07,4,0,7,0.00
2012-8-22,89.4,68.5,51.1,62.1,56.6,50.0,99,72,27,30.20,30.12,8,1,9,0.00
2012-8-23,91.9,72.0,57.7,65.2,61.1,57.5,99,74,34,30.23,30.14,6,1,8,0.00
2012-8-24,91.4,69.3,57.9,69.8,61.9,57.7,99,82,38,30.22,30.12,28,1,45,0.99
2012-8-25,90.7,70.4,56.3,70.7,62.4,56.0,99,80,41,30.24,30.14,6,1,8,0.01
2012-8-26,91.6,71.4,56.1,69.1,62.0,55.9,99,77,35,30.26,30.15,5,1,8,0.00
2012-8-27,94.1,73.4,57.0,69.1,63.1,56.8,99,75,39,30.23,30.07,4,1,8,0.00
2012-8-28,94.5,74.0,58.6,71.4,65.0,58.2,99,78,40,30.13,30.00,12,1,17,0.00
2012-8-29,91.8,76.0,62.8,72.3,64.9,58.5,99,73,35,30.11,30.03,7,1,10,0.00
2012-8-30,95.2,75.2,59.7,71.8,65.9,59.5,99,77,44,30.23,30.07,7,1,10,0.00
2012-8-31,93.9,77.4,63.9,74.0,68.6,63.0,99,78,46,30.32,30.19,8,1,12,0.00
2012-9-1,90.9,77.7,68.0,73.4,70.4,67.7,99,81,48,30.27,30.12,5,1,8,0.09
2012-9-2,92.8,75.8,67.1,75.4,70.2,66.8,99,85,50,30.16,29.99,11,1,17,0.38
2012-9-3,89.1,72.9,66.7,75.7,69.6,66.5,99,91,58,30.05,29.98,8,1,11,0.12
2012-9-4,89.2,74.7,64.8,73.9,69.6,64.5,99,86,55,30.03,29.95,5,1,10,0.07
2012-9-5,89.4,75.9,71.1,74.5,71.7,70.5,98,88,56,30.02,29.92,7,1,10,0.09
2012-9-6,88.7,75.0,66.6,71.9,69.4,66.3,99,85,54,30.06,29.96,7,1,10,0.00
2012-9-7,93.9,75.0,62.6,72.9,66.5,61.8,99,79,37,30.07,29.90,6,1,9,0.01
2012-9-8,81.0,66.5,52.2,71.3,64.1,51.6,99,92,65,30.01,29.84,11,1,17,0.00
2012-9-9,79.0,60.3,49.5,59.3,54.1,49.2,99,83,45,30.11,29.98,6,1,9,0.00
2012-9-10,79.7,62.5,49.8,62.3,54.8,49.6,99,79,43,30.23,30.10,7,1,9,0.00
2012-9-11,83.3,63.8,48.7,60.1,54.1,48.5,99,76,41,30.32,30.23,8,1,11,0.00
2012-9-12,87.6,66.8,52.3,64.9,57.6,51.8,99,77,36,30.40,30.27,7,1,10,0.00
2012-9-13,85.8,65.3,50.5,65.2,55.5,47.2,99,76,32,30.41,30.27,8,1,11,0.00
2012-9-14,86.2,67.1,53.1,63.3,58.1,52.5,99,77,41,30.33,30.23,8,1,9,0.00
2012-9-15,84.4,69.7,56.1,64.6,61.0,55.9,99,76,46,30.24,30.00,8,1,11,0.00
2012-9-16,83.5,67.7,59.2,65.7,61.3,58.8,99,82,51,30.01,29.91,6,1,8,0.00
2012-9-17,74.1,65.9,60.6,67.6,64.0,60.2,99,94,74,29.95,29.68,4,0,5,0.00
2012-9-18,69.6,64.8,60.1,66.1,63.3,54.6,99,95,82,29.82,29.54,8,1,16,0.00
2012-9-19,77.0,59.6,47.1,54.6,51.1,46.9,99,77,40,29.99,29.82,8,1,11,0.00
2012-9-20,81.5,62.1,48.2,60.7,54.4,47.9,99,80,41,30.00,29.90,10,1,14,0.00
2012-9-21,81.1,64.0,51.4,65.2,57.3,51.2,99,82,45,29.96,29.83,8,1,11,0.00
2012-9-22,80.4,63.8,49.6,66.2,56.4,48.3,99,80,47,29.95,29.80,13,2,21,0.00
2012-9-23,72.5,52.2,42.1,52.7,43.2,30.3,99,78,22,30.07,29.94,8,1,11,0.00
2012-9-24,74.8,51.6,35.1,51.3,41.5,34.6,99,75,29,30.12,29.99,7,1,10,0.00
2012-9-25,74.7,55.9,39.6,58.0,48.4,39.1,99,80,42,30.09,29.99,7,1,10,0.00
2012-9-26,83.8,63.4,48.7,64.8,55.9,48.5,99,81,44,30.09,30.01,9,1,14,0.00
2012-9-27,82.8,65.5,52.0,66.7,59.1,51.4,99,82,51,30.10,29.99,8,1,13,0.00
2012-9-28,78.6,65.8,56.7,67.8,62.0,56.4,99,89,63,30.02,29.88,8,1,11,0.00
2012-9-29,72.7,64.0,52.9,65.2,61.8,52.0,99,93,73,30.16,29.79,8,1,12,0.00
2012-9-30,74.8,56.9,47.8,59.2,51.7,45.5,99,86,40,30.16,30.04,4,0,5,0.01
2012-10-1,65.8,59.6,54.7,62.2,57.9,53.4,98,94,84,30.07,29.91,8,2,10,0.50
2012-10-2,87.6,69.5,60.4,73.0,63.5,59.3,99,84,43,30.14,29.92,8,1,14,0.34
2012-10-3,78.3,65.5,57.9,64.6,61.3,57.7,99,87,59,30.37,30.14,4,0,7,0.00
2012-10-4,79.7,64.7,52.3,61.7,57.6,51.8,99,81,44,30.47,30.36,9,1,14,0.00
2012-10-5,81.5,60.9,46.2,61.0,53.3,45.2,99,81,42,31.84,30.20,7,1,11,0.00
2012-10-6,64.8,56.1,52.0,60.6,52.6,44.3,99,88,75,30.25,30.15,8,1,11,0.00
2012-10-7,53.1,48.7,42.8,49.0,46.4,42.3,98,92,78,30.33,30.13,5,1,8,0.28
2012-10-8,51.1,46.3,40.6,47.6,44.5,40.4,99,94,82,30.37,30.27,8,1,9,0.13
2012-10-9,63.1,50.1,39.4,49.9,46.0,39.1,99,87,56,30.32,30.21,4,0,7,0.00
2012-10-10,61.2,51.1,39.4,52.3,48.0,39.1,99,90,72,30.36,30.19,10,2,17,0.00
2012-10-11,70.2,48.7,32.4,50.1,39.6,32.1,99,77,33,30.45,30.35,7,1,9,0.01
2012-10-12,68.2,52.1,40.6,50.6,45.2,40.4,99,81,43,30.49,30.38,6,0,8,0.00
2012-10-13,76.5,53.8,37.0,55.0,46.1,36.3,99,80,42,30.53,30.38,7,1,10,0.00
2012-10-14,78.3,58.7,43.2,59.5,52.0,42.6,99,82,50,30.41,30.12,11,1,14,0.00
2012-10-15,69.6,60.3,43.3,60.2,52.3,42.0,99,77,43,30.12,30.02,14,3,20,0.46
2012-10-16,70.9,50.3,37.2,52.1,42.3,36.3,99,79,36,30.18,30.06,8,1,11,0.00
2012-10-17,77.9,53.2,36.7,52.7,44.0,35.9,99,77,32,30.15,29.96,6,1,8,0.00
2012-10-18,78.3,58.2,43.0,58.7,50.1,42.5,99,77,45,29.99,29.86,14,2,25,0.00
2012-10-19,69.3,55.6,38.3,50.8,38.9,26.4,99,61,23,29.99,29.85,15,2,21,0.00
2012-10-20,62.1,52.6,44.8,44.1,41.9,39.8,95,68,49,30.17,29.94,9,2,14,0.00
2012-10-21,68.9,51.3,37.4,48.9,43.4,37.1,99,79,43,30.34,30.17,7,1,11,0.00
2012-10-22,81.9,55.0,37.4,54.9,45.8,37.1,99,78,32,30.41,30.31,5,1,8,0.00
2012-10-23,78.6,57.1,42.1,58.7,49.4,41.6,99,80,44,30.37,30.28,8,1,11,0.00
2012-10-24,83.1,58.8,43.5,59.5,49.0,43.0,99,76,27,30.39,30.26,5,1,8,0.00
2012-10-25,86.7,60.8,41.2,60.2,48.2,40.9,99,71,26,30.32,30.20,5,1,8,0.00
2012-10-26,81.3,61.2,46.9,60.1,52.2,46.7,99,77,39,30.27,30.13,8,1,10,0.00
2012-10-27,70.0,54.2,49.1,57.9,50.3,44.2,99,87,62,30.14,30.05,11,3,16,0.06
2012-10-28,49.5,45.9,39.4,46.0,42.3,35.5,93,87,82,30.10,29.98,10,2,13,0.31
2012-10-29,41.0,38.7,35.2,37.8,35.3,33.0,95,87,78,30.05,29.78,12,3,20,0.31
2012-10-30,38.5,36.2,34.2,36.9,34.5,32.4,96,93,91,29.87,29.68,13,6,17,0.20
2012-10-31,44.1,40.1,37.4,39.1,36.3,34.2,97,86,72,29.99,29.86,12,3,17,0.01
2012-11-1,56.5,43.3,35.6,39.6,33.1,19.7,98,71,27,30.08,29.99,13,3,21,0.00
2012-11-2,63.1,46.2,35.2,38.8,33.3,25.9,88,65,26,30.18,30.04,12,2,18,0.00
2012-11-3,63.3,44.7,27.5,41.8,32.4,26.3,99,68,29,30.30,30.13,9,1,16,0.00
2012-11-4,59.2,49.2,39.4,46.0,41.0,34.0,96,74,55,30.23,30.12,11,2,16,0.00
2012-11-5,60.1,39.6,27.1,40.9,31.0,25.9,99,76,33,30.26,30.16,7,1,10,0.00
2012-11-6,49.1,40.2,30.7,38.5,33.5,27.1,95,77,60,30.19,30.07,7,1,9,0.02
2012-11-7,48.6,40.7,36.3,42.6,37.3,32.0,99,88,75,30.18,30.03,5,1,7,0.09
2012-11-8,58.5,39.4,28.8,40.6,34.8,28.0,99,86,47,30.35,30.18,8,1,11,0.00
2012-11-9,65.5,40.1,24.8,40.6,31.2,-33.9,99,76,30,30.45,30.34,7,1,8,0.01
2012-11-10,75.0,45.5,28.2,46.2,34.0,27.5,99,74,21,30.53,30.40,4,1,7,0.00
2012-11-11,78.6,52.1,30.0,48.4,38.0,29.8,99,68,21,30.53,30.42,11,2,15,0.00
2012-11-12,69.8,59.5,41.7,57.1,50.6,39.0,99,74,52,30.49,30.26,10,3,15,0.41
2012-11-13,55.4,39.5,28.9,39.0,29.6,24.1,93,71,32,30.56,30.48,8,2,11,0.01
2012-11-14,56.7,38.0,23.2,36.7,29.5,21.8,98,74,39,30.53,30.41,8,2,11,0.00
2012-11-15,62.1,40.8,29.1,35.9,31.4,27.2,98,73,33,30.46,30.36,5,1,7,0.00
2012-11-16,62.1,39.5,24.8,41.5,29.3,23.8,99,73,27,30.52,30.41,6,1,9,0.00
2012-11-17,66.4,42.4,34.3,62.4,27.5,19.6,87,62,22,30.51,29.68,10,3,12,3.18
2012-11-18,62.1,46.4,34.7,44.1,34.6,22.7,86,64,50,30.18,30.05,10,4,17,0.00
2012-11-19,67.3,46.6,33.1,48.9,39.9,31.1,99,80,47,30.07,29.91,7,1,8,0.00
2012-11-20,64.9,44.2,33.8,46.1,37.0,32.5,99,80,33,29.92,29.78,6,1,10,0.00
2012-11-21,70.0,46.2,29.1,45.8,34.2,28.9,99,71,24,29.93,29.83,8,1,9,0.00
2012-11-22,70.7,42.5,26.6,42.8,31.6,25.6,99,74,22,29.98,29.87,5,1,7,0.00
2012-11-23,59.9,41.4,28.0,45.9,36.0,27.1,99,83,56,29.88,29.69,11,2,17,0.00
2012-11-24,46.9,35.7,20.8,31.6,22.2,16.0,85,60,32,29.86,29.75,12,2,19,0.00
2012-11-25,52.9,31.3,17.2,27.9,18.5,13.6,90,64,22,29.87,29.72,10,1,14,0.00
2012-11-26,59.4,39.1,21.9,39.9,26.1,18.4,89,65,25,29.93,29.80,4,0,6,0.01
2012-11-27,45.0,42.2,36.7,44.2,40.2,33.0,99,93,84,29.97,29.82,8,1,11,0.08
2012-11-28,52.5,37.9,24.3,35.9,29.6,22.6,94,75,36,30.10,29.95,8,1,11,0.00
2012-11-29,59.4,34.2,19.6,36.9,24.7,17.7,96,75,25,30.13,30.01,6,1,9,0.00
2012-11-30,61.9,38.2,23.7,39.9,30.8,22.3,99,78,39,30.08,29.96,9,1,13,0.00
2012-12-1,68.4,42.7,28.6,47.9,37.3,28.3,99,85,46,30.08,29.98,6,1,8,0.00
2012-12-2,68.5,48.1,31.6,53.5,41.8,31.4,99,82,46,30.03,29.92,14,2,18,0.00
2012-12-3,74.1,55.2,42.3,52.5,48.5,42.0,99,81,45,30.03,29.93,8,1,10,0.00
2012-12-4,70.9,52.1,38.3,57.5,46.5,38.0,99,84,52,30.00,29.87,11,1,15,0.00
2012-12-5,60.8,48.5,30.0,54.6,41.5,29.0,98,80,34,29.98,29.85,13,2,17,0.21
2012-12-6,53.4,42.2,28.6,44.3,35.9,27.8,98,80,46,29.92,29.82,6,1,8,0.05
2012-12-7,68.4,48.2,36.7,51.9,43.7,35.9,99,87,53,29.82,29.68,4,1,7,0.01
2012-12-8,69.3,52.6,43.2,55.2,48.6,42.6,99,88,55,29.75,29.67,8,1,11,0.00
2012-12-9,74.8,56.7,43.3,60.2,50.8,42.8,99,83,49,29.80,29.64,8,1,10,0.04
2012-12-10,58.3,52.8,41.5,55.9,51.1,38.1,98,94,85,29.64,29.40,10,2,17,0.72
2012-12-11,42.3,38.5,32.0,39.0,34.0,29.1,93,84,72,29.89,29.58,6,1,9,0.01
2012-12-12,41.9,35.0,28.2,32.0,28.7,24.6,93,79,58,30.00,29.88,8,2,13,0.00
2012-12-13,61.0,37.5,25.9,34.9,27.1,22.3,92,71,29,30.07,29.96,6,1,8,0.01
2012-12-14,62.6,37.4,25.9,37.7,28.9,22.2,92,75,30,30.09,29.92,6,1,8,0.01
2012-12-15,66.2,44.9,32.9,40.0,33.5,28.5,89,68,27,29.93,29.70,4,1,6,0.00
2012-12-16,56.8,49.5,43.9,52.7,47.8,39.4,97,94,75,29.75,29.56,6,1,10,0.39
2012-12-17,57.7,49.7,0.0,52.1,49.9,44.8,97,91,79,29.57,29.36,10,2,13,0.18
2012-12-18,52.5,43.0,28.0,46.9,37.0,24.8,98,81,50,29.67,29.40,15,4,21,0.01
2012-12-19,62.4,38.8,26.2,41.9,32.3,23.7,97,80,43,29.81,29.65,7,1,9,0.00
2012-12-20,51.3,40.7,34.2,47.0,37.3,26.9,96,88,64,30.11,29.78,21,3,29,0.43
2012-12-21,36.5,32.2,29.3,29.3,23.1,19.4,88,69,55,30.31,29.99,17,8,30,0.00
2012-12-22,41.9,30.3,20.8,22.7,17.8,14.1,84,60,43,30.55,30.31,14,4,19,0.00
2012-12-23,53.4,33.9,17.1,39.4,24.0,11.7,96,72,30,30.46,27.42,10,1,14,0.11
2012-12-24,48.9,44.4,40.5,46.7,43.1,39.4,97,95,90,30.33,30.13,5,1,8,0.34
2012-12-25,51.3,45.8,42.4,43.4,41.7,39.6,98,86,69,30.38,30.22,8,1,10,0.11
2012-12-26,54.7,42.4,32.7,43.7,37.6,26.5,95,84,60,30.22,29.76,15,5,22,0.51
2012-12-27,33.3,32.0,31.1,27.4,25.8,24.8,82,78,74,30.41,30.15,14,4,20,0.00
2012-12-28,42.4,36.0,29.3,34.3,28.5,23.9,86,74,58,30.41,30.11,8,1,9,0.01
2012-12-29,43.2,36.6,30.4,39.8,31.9,22.3,96,83,67,30.42,29.98,16,4,25,0.24
2012-12-30,41.9,29.3,21.4,22.8,18.6,14.6,84,65,44,30.72,30.42,12,3,19,0.00
2012-12-31,38.7,30.3,19.8,28.3,22.9,16.0,85,74,57,30.65,30.41,3,0,4,0.00
2013-1-1,42.8,39.1,34.7,40.7,35.8,27.8,95,88,71,30.42,30.25,8,1,11,0.30